sensor_id;sensor_type;location;lat;lon;timestamp;P1;durP1;ratioP1;P2;durP2;ratioP2
15536;SDS011;7870;52.448;13.270;2023-03-08T00:01:43;7.45;;;2.92;;
15536;SDS011;7870;52.448;13.270;2023-03-08T00:04:10;6.70;;;2.53;;
15536;SDS011;7870;52.448;13.270;2023-03-08T00:06:37;8.20;;;2.72;;
15536;SDS011;7870;52.448;13.270;2023-03-08T00:09:03;6.90;;;3.33;;
15536;SDS011;7870;52.448;13.270;2023-03-08T00:11:30;9.43;;;3.30;;
15536;SDS011;7870;52.448;13.270;2023-03-08T00:13:56;6.18;;;3.22;;
15536;SDS011;7870;52.448;13.270;2023-03-08T00:16:23;7.43;;;2.50;;
15536;SDS011;7870;52.448;13.270;2023-03-08T00:18:50;6.20;;;2.30;;
15536;SDS011;7870;52.448;13.270;2023-03-08T00:21:17;5.10;;;3.10;;
15536;SDS011;7870;52.448;13.270;2023-03-08T00:23:44;5.85;;;2.95;;
15536;SDS011;7870;52.448;13.270;2023-03-08T00:26:11;6.75;;;2.97;;
15536;SDS011;7870;52.448;13.270;2023-03-08T00:28:38;6.60;;;2.92;;
15536;SDS011;7870;52.448;13.270;2023-03-08T00:31:09;6.57;;;2.90;;
15536;SDS011;7870;52.448;13.270;2023-03-08T00:33:36;8.60;;;3.67;;
15536;SDS011;7870;52.448;13.270;2023-03-08T00:36:09;10.27;;;4.18;;
15536;SDS011;7870;52.448;13.270;2023-03-08T00:38:39;9.43;;;4.10;;
15536;SDS011;7870;52.448;13.270;2023-03-08T00:41:06;9.60;;;4.22;;
15536;SDS011;7870;52.448;13.270;2023-03-08T00:43:33;9.50;;;3.50;;
15536;SDS011;7870;52.448;13.270;2023-03-08T00:46:01;7.75;;;4.05;;
15536;SDS011;7870;52.448;13.270;2023-03-08T00:48:28;8.15;;;4.10;;
15536;SDS011;7870;52.448;13.270;2023-03-08T00:50:55;10.98;;;4.60;;
15536;SDS011;7870;52.448;13.270;2023-03-08T00:53:22;7.35;;;4.45;;
15536;SDS011;7870;52.448;13.270;2023-03-08T00:55:49;8.00;;;4.57;;
15536;SDS011;7870;52.448;13.270;2023-03-08T00:58:20;8.27;;;4.68;;
15536;SDS011;7870;52.448;13.270;2023-03-08T01:00:47;11.02;;;5.25;;
15536;SDS011;7870;52.448;13.270;2023-03-08T01:03:14;9.05;;;5.15;;
15536;SDS011;7870;52.448;13.270;2023-03-08T01:05:42;14.10;;;5.22;;
15536;SDS011;7870;52.448;13.270;2023-03-08T01:08:12;9.63;;;5.07;;
15536;SDS011;7870;52.448;13.270;2023-03-08T01:10:39;10.00;;;6.15;;
15536;SDS011;7870;52.448;13.270;2023-03-08T01:13:07;10.80;;;5.80;;
15536;SDS011;7870;52.448;13.270;2023-03-08T01:15:34;12.10;;;6.00;;
15536;SDS011;7870;52.448;13.270;2023-03-08T01:18:03;12.15;;;6.30;;
15536;SDS011;7870;52.448;13.270;2023-03-08T01:20:30;12.68;;;6.15;;
15536;SDS011;7870;52.448;13.270;2023-03-08T01:22:57;10.50;;;6.30;;
15536;SDS011;7870;52.448;13.270;2023-03-08T01:25:24;10.00;;;6.30;;
15536;SDS011;7870;52.448;13.270;2023-03-08T01:27:50;8.50;;;5.97;;
15536;SDS011;7870;52.448;13.270;2023-03-08T01:30:17;14.65;;;8.23;;
15536;SDS011;7870;52.448;13.270;2023-03-08T01:32:43;12.20;;;6.57;;
15536;SDS011;7870;52.448;13.270;2023-03-08T01:35:10;8.63;;;5.70;;
15536;SDS011;7870;52.448;13.270;2023-03-08T01:37:37;11.10;;;6.55;;
15536;SDS011;7870;52.448;13.270;2023-03-08T01:40:03;11.13;;;6.57;;
15536;SDS011;7870;52.448;13.270;2023-03-08T01:42:31;11.15;;;7.00;;
15536;SDS011;7870;52.448;13.270;2023-03-08T01:45:02;12.52;;;7.82;;
15536;SDS011;7870;52.448;13.270;2023-03-08T01:47:33;14.52;;;7.30;;
15536;SDS011;7870;52.448;13.270;2023-03-08T01:50:11;12.20;;;7.50;;
15536;SDS011;7870;52.448;13.270;2023-03-08T01:52:44;14.82;;;8.48;;
15536;SDS011;7870;52.448;13.270;2023-03-08T01:55:13;12.00;;;8.40;;
15536;SDS011;7870;52.448;13.270;2023-03-08T01:57:42;14.00;;;8.57;;
15536;SDS011;7870;52.448;13.270;2023-03-08T02:00:15;19.30;;;9.65;;
15536;SDS011;7870;52.448;13.270;2023-03-08T02:02:51;14.30;;;8.63;;
15536;SDS011;7870;52.448;13.270;2023-03-08T02:05:19;18.63;;;10.25;;
15536;SDS011;7870;52.448;13.270;2023-03-08T02:07:50;17.52;;;9.48;;
15536;SDS011;7870;52.448;13.270;2023-03-08T02:10:18;16.80;;;9.68;;
15536;SDS011;7870;52.448;13.270;2023-03-08T02:12:45;12.35;;;9.40;;
15536;SDS011;7870;52.448;13.270;2023-03-08T02:15:14;13.07;;;9.60;;
15536;SDS011;7870;52.448;13.270;2023-03-08T02:17:47;14.65;;;10.07;;
15536;SDS011;7870;52.448;13.270;2023-03-08T02:22:52;14.90;;;10.73;;
15536;SDS011;7870;52.448;13.270;2023-03-08T02:25:20;14.82;;;10.48;;
15536;SDS011;7870;52.448;13.270;2023-03-08T02:27:48;15.35;;;10.02;;
15536;SDS011;7870;52.448;13.270;2023-03-08T02:30:21;17.10;;;10.57;;
15536;SDS011;7870;52.448;13.270;2023-03-08T02:32:54;16.08;;;10.88;;
15536;SDS011;7870;52.448;13.270;2023-03-08T02:35:20;16.63;;;11.32;;
15536;SDS011;7870;52.448;13.270;2023-03-08T02:37:47;15.57;;;10.82;;
15536;SDS011;7870;52.448;13.270;2023-03-08T02:40:13;18.05;;;11.00;;
15536;SDS011;7870;52.448;13.270;2023-03-08T02:42:40;13.70;;;10.57;;
15536;SDS011;7870;52.448;13.270;2023-03-08T02:45:07;16.27;;;11.32;;
15536;SDS011;7870;52.448;13.270;2023-03-08T02:47:34;14.55;;;11.52;;
15536;SDS011;7870;52.448;13.270;2023-03-08T02:50:01;19.00;;;11.70;;
15536;SDS011;7870;52.448;13.270;2023-03-08T02:52:28;15.07;;;11.18;;
15536;SDS011;7870;52.448;13.270;2023-03-08T02:54:55;17.10;;;11.65;;
15536;SDS011;7870;52.448;13.270;2023-03-08T02:57:23;14.18;;;10.95;;
15536;SDS011;7870;52.448;13.270;2023-03-08T02:59:51;14.68;;;10.88;;
15536;SDS011;7870;52.448;13.270;2023-03-08T03:02:18;23.35;;;13.10;;
15536;SDS011;7870;52.448;13.270;2023-03-08T03:04:44;16.20;;;11.77;;
15536;SDS011;7870;52.448;13.270;2023-03-08T03:07:11;15.65;;;11.73;;
15536;SDS011;7870;52.448;13.270;2023-03-08T03:09:38;13.75;;;10.80;;
15536;SDS011;7870;52.448;13.270;2023-03-08T03:12:05;14.75;;;10.77;;
15536;SDS011;7870;52.448;13.270;2023-03-08T03:14:34;16.77;;;11.40;;
15536;SDS011;7870;52.448;13.270;2023-03-08T03:17:01;16.27;;;10.90;;
15536;SDS011;7870;52.448;13.270;2023-03-08T03:19:27;16.63;;;12.45;;
15536;SDS011;7870;52.448;13.270;2023-03-08T03:21:54;15.48;;;11.27;;
15536;SDS011;7870;52.448;13.270;2023-03-08T03:24:20;18.27;;;12.07;;
15536;SDS011;7870;52.448;13.270;2023-03-08T03:26:53;18.48;;;11.65;;
15536;SDS011;7870;52.448;13.270;2023-03-08T03:29:22;17.02;;;11.38;;
15536;SDS011;7870;52.448;13.270;2023-03-08T03:31:54;18.58;;;10.82;;
15536;SDS011;7870;52.448;13.270;2023-03-08T03:34:21;14.68;;;10.82;;
15536;SDS011;7870;52.448;13.270;2023-03-08T03:36:48;12.77;;;11.15;;
15536;SDS011;7870;52.448;13.270;2023-03-08T03:39:15;17.05;;;11.68;;
15536;SDS011;7870;52.448;13.270;2023-03-08T03:41:43;13.40;;;11.40;;
15536;SDS011;7870;52.448;13.270;2023-03-08T03:44:12;17.48;;;11.05;;
15536;SDS011;7870;52.448;13.270;2023-03-08T03:46:41;16.70;;;11.13;;
15536;SDS011;7870;52.448;13.270;2023-03-08T03:49:10;14.68;;;10.90;;
15536;SDS011;7870;52.448;13.270;2023-03-08T03:51:40;14.15;;;10.40;;
15536;SDS011;7870;52.448;13.270;2023-03-08T03:54:13;15.60;;;10.80;;
15536;SDS011;7870;52.448;13.270;2023-03-08T03:56:41;12.95;;;10.50;;
15536;SDS011;7870;52.448;13.270;2023-03-08T03:59:08;15.88;;;10.32;;
15536;SDS011;7870;52.448;13.270;2023-03-08T04:01:35;12.55;;;9.77;;
15536;SDS011;7870;52.448;13.270;2023-03-08T04:04:11;14.95;;;10.25;;
15536;SDS011;7870;52.448;13.270;2023-03-08T04:06:41;14.20;;;10.75;;
15536;SDS011;7870;52.448;13.270;2023-03-08T04:09:12;14.40;;;10.55;;
15536;SDS011;7870;52.448;13.270;2023-03-08T04:11:41;13.00;;;9.68;;
15536;SDS011;7870;52.448;13.270;2023-03-08T04:14:13;12.15;;;9.95;;
15536;SDS011;7870;52.448;13.270;2023-03-08T04:16:41;13.10;;;9.85;;
15536;SDS011;7870;52.448;13.270;2023-03-08T04:19:15;13.70;;;10.40;;
15536;SDS011;7870;52.448;13.270;2023-03-08T04:21:48;16.13;;;11.30;;
15536;SDS011;7870;52.448;13.270;2023-03-08T04:24:16;12.80;;;10.13;;
15536;SDS011;7870;52.448;13.270;2023-03-08T04:26:46;15.75;;;10.85;;
15536;SDS011;7870;52.448;13.270;2023-03-08T04:29:16;13.68;;;10.57;;
15536;SDS011;7870;52.448;13.270;2023-03-08T04:31:43;14.57;;;10.82;;
15536;SDS011;7870;52.448;13.270;2023-03-08T04:34:12;12.63;;;9.95;;
15536;SDS011;7870;52.448;13.270;2023-03-08T04:36:40;16.60;;;11.57;;
15536;SDS011;7870;52.448;13.270;2023-03-08T04:39:07;13.57;;;10.10;;
15536;SDS011;7870;52.448;13.270;2023-03-08T04:41:34;12.55;;;9.00;;
15536;SDS011;7870;52.448;13.270;2023-03-08T04:44:12;11.55;;;9.77;;
15536;SDS011;7870;52.448;13.270;2023-03-08T04:46:43;11.88;;;10.18;;
15536;SDS011;7870;52.448;13.270;2023-03-08T04:49:14;13.02;;;10.50;;
15536;SDS011;7870;52.448;13.270;2023-03-08T04:51:45;16.65;;;11.25;;
15536;SDS011;7870;52.448;13.270;2023-03-08T04:54:11;14.23;;;10.02;;
15536;SDS011;7870;52.448;13.270;2023-03-08T04:56:44;15.18;;;11.50;;
15536;SDS011;7870;52.448;13.270;2023-03-08T04:59:12;12.82;;;10.18;;
15536;SDS011;7870;52.448;13.270;2023-03-08T05:01:38;12.48;;;10.13;;
15536;SDS011;7870;52.448;13.270;2023-03-08T05:04:05;13.52;;;10.57;;
15536;SDS011;7870;52.448;13.270;2023-03-08T05:06:37;13.23;;;10.85;;
15536;SDS011;7870;52.448;13.270;2023-03-08T05:09:03;13.35;;;10.57;;
15536;SDS011;7870;52.448;13.270;2023-03-08T05:11:30;18.63;;;11.48;;
15536;SDS011;7870;52.448;13.270;2023-03-08T05:13:58;15.73;;;12.02;;
15536;SDS011;7870;52.448;13.270;2023-03-08T05:16:26;13.30;;;10.68;;
15536;SDS011;7870;52.448;13.270;2023-03-08T05:18:53;13.13;;;10.60;;
15536;SDS011;7870;52.448;13.270;2023-03-08T05:21:23;15.23;;;10.75;;
15536;SDS011;7870;52.448;13.270;2023-03-08T05:23:57;15.40;;;12.27;;
15536;SDS011;7870;52.448;13.270;2023-03-08T05:26:25;14.38;;;11.88;;
15536;SDS011;7870;52.448;13.270;2023-03-08T05:28:52;15.65;;;11.18;;
15536;SDS011;7870;52.448;13.270;2023-03-08T05:31:23;15.88;;;11.65;;
15536;SDS011;7870;52.448;13.270;2023-03-08T05:33:52;15.32;;;11.88;;
15536;SDS011;7870;52.448;13.270;2023-03-08T05:36:27;14.07;;;12.10;;
15536;SDS011;7870;52.448;13.270;2023-03-08T05:38:55;14.88;;;11.05;;
15536;SDS011;7870;52.448;13.270;2023-03-08T05:41:29;18.67;;;12.07;;
15536;SDS011;7870;52.448;13.270;2023-03-08T05:43:58;17.08;;;13.00;;
15536;SDS011;7870;52.448;13.270;2023-03-08T05:46:28;20.05;;;12.63;;
15536;SDS011;7870;52.448;13.270;2023-03-08T05:48:59;17.48;;;12.65;;
15536;SDS011;7870;52.448;13.270;2023-03-08T05:51:28;14.23;;;11.38;;
15536;SDS011;7870;52.448;13.270;2023-03-08T05:53:55;14.13;;;11.40;;
15536;SDS011;7870;52.448;13.270;2023-03-08T05:56:22;16.20;;;11.32;;
15536;SDS011;7870;52.448;13.270;2023-03-08T05:58:59;14.40;;;11.43;;
15536;SDS011;7870;52.448;13.270;2023-03-08T06:01:27;14.98;;;12.05;;
15536;SDS011;7870;52.448;13.270;2023-03-08T06:04:01;15.38;;;12.27;;
15536;SDS011;7870;52.448;13.270;2023-03-08T06:06:31;14.63;;;13.02;;
15536;SDS011;7870;52.448;13.270;2023-03-08T06:09:02;15.43;;;12.95;;
15536;SDS011;7870;52.448;13.270;2023-03-08T06:11:31;19.00;;;11.80;;
15536;SDS011;7870;52.448;13.270;2023-03-08T06:13:59;17.80;;;13.00;;
15536;SDS011;7870;52.448;13.270;2023-03-08T06:16:28;15.88;;;12.23;;
15536;SDS011;7870;52.448;13.270;2023-03-08T06:18:56;16.65;;;13.23;;
15536;SDS011;7870;52.448;13.270;2023-03-08T06:21:23;16.27;;;12.23;;
15536;SDS011;7870;52.448;13.270;2023-03-08T06:23:56;16.42;;;13.02;;
15536;SDS011;7870;52.448;13.270;2023-03-08T06:26:23;16.20;;;11.90;;
15536;SDS011;7870;52.448;13.270;2023-03-08T06:28:50;15.38;;;12.13;;
15536;SDS011;7870;52.448;13.270;2023-03-08T06:31:17;14.40;;;12.43;;
15536;SDS011;7870;52.448;13.270;2023-03-08T06:33:44;16.20;;;12.55;;
15536;SDS011;7870;52.448;13.270;2023-03-08T06:36:17;15.93;;;11.45;;
15536;SDS011;7870;52.448;13.270;2023-03-08T06:38:45;14.45;;;11.20;;
15536;SDS011;7870;52.448;13.270;2023-03-08T06:41:12;13.30;;;11.02;;
15536;SDS011;7870;52.448;13.270;2023-03-08T06:43:39;14.50;;;10.90;;
15536;SDS011;7870;52.448;13.270;2023-03-08T06:46:07;12.07;;;9.48;;
15536;SDS011;7870;52.448;13.270;2023-03-08T06:48:34;14.32;;;10.52;;
15536;SDS011;7870;52.448;13.270;2023-03-08T06:51:02;16.70;;;10.75;;
15536;SDS011;7870;52.448;13.270;2023-03-08T06:53:30;11.77;;;9.93;;
15536;SDS011;7870;52.448;13.270;2023-03-08T06:56:00;14.60;;;11.05;;
15536;SDS011;7870;52.448;13.270;2023-03-08T06:58:30;12.75;;;9.82;;
15536;SDS011;7870;52.448;13.270;2023-03-08T07:00:56;15.48;;;10.10;;
15536;SDS011;7870;52.448;13.270;2023-03-08T07:03:25;11.85;;;9.05;;
15536;SDS011;7870;52.448;13.270;2023-03-08T07:05:57;13.38;;;10.23;;
15536;SDS011;7870;52.448;13.270;2023-03-08T07:08:24;13.68;;;10.45;;
15536;SDS011;7870;52.448;13.270;2023-03-08T07:10:51;16.48;;;10.50;;
15536;SDS011;7870;52.448;13.270;2023-03-08T07:13:17;12.60;;;11.13;;
15536;SDS011;7870;52.448;13.270;2023-03-08T07:15:45;15.07;;;11.07;;
15536;SDS011;7870;52.448;13.270;2023-03-08T07:18:11;12.90;;;9.80;;
15536;SDS011;7870;52.448;13.270;2023-03-08T07:20:41;14.38;;;10.52;;
15536;SDS011;7870;52.448;13.270;2023-03-08T07:23:08;12.15;;;10.38;;
15536;SDS011;7870;52.448;13.270;2023-03-08T07:25:36;14.23;;;11.52;;
15536;SDS011;7870;52.448;13.270;2023-03-08T07:28:04;13.45;;;10.50;;
15536;SDS011;7870;52.448;13.270;2023-03-08T07:30:30;12.57;;;10.02;;
15536;SDS011;7870;52.448;13.270;2023-03-08T07:32:57;13.95;;;10.23;;
15536;SDS011;7870;52.448;13.270;2023-03-08T07:35:23;12.73;;;9.82;;
15536;SDS011;7870;52.448;13.270;2023-03-08T07:37:50;12.95;;;10.13;;
15536;SDS011;7870;52.448;13.270;2023-03-08T07:40:17;15.07;;;10.40;;
15536;SDS011;7870;52.448;13.270;2023-03-08T07:42:43;14.20;;;11.10;;
15536;SDS011;7870;52.448;13.270;2023-03-08T07:45:27;11.38;;;10.27;;
15536;SDS011;7870;52.448;13.270;2023-03-08T07:47:54;10.95;;;9.27;;
15536;SDS011;7870;52.448;13.270;2023-03-08T07:50:21;13.15;;;9.80;;
15536;SDS011;7870;52.448;13.270;2023-03-08T07:52:47;12.55;;;9.77;;
15536;SDS011;7870;52.448;13.270;2023-03-08T07:55:14;11.60;;;10.40;;
15536;SDS011;7870;52.448;13.270;2023-03-08T07:57:41;12.80;;;10.10;;
15536;SDS011;7870;52.448;13.270;2023-03-08T08:00:08;13.43;;;9.88;;
15536;SDS011;7870;52.448;13.270;2023-03-08T08:02:40;12.50;;;10.63;;
15536;SDS011;7870;52.448;13.270;2023-03-08T08:05:07;10.55;;;9.45;;
15536;SDS011;7870;52.448;13.270;2023-03-08T08:07:34;10.45;;;9.32;;
15536;SDS011;7870;52.448;13.270;2023-03-08T08:10:01;12.23;;;10.25;;
15536;SDS011;7870;52.448;13.270;2023-03-08T08:12:27;10.25;;;9.25;;
15536;SDS011;7870;52.448;13.270;2023-03-08T08:14:54;10.77;;;9.45;;
15536;SDS011;7870;52.448;13.270;2023-03-08T08:17:21;10.68;;;9.50;;
15536;SDS011;7870;52.448;13.270;2023-03-08T08:19:47;10.88;;;9.65;;
15536;SDS011;7870;52.448;13.270;2023-03-08T08:22:14;10.30;;;9.30;;
15536;SDS011;7870;52.448;13.270;2023-03-08T08:24:41;12.35;;;9.18;;
15536;SDS011;7870;52.448;13.270;2023-03-08T08:27:08;10.73;;;9.63;;
15536;SDS011;7870;52.448;13.270;2023-03-08T08:29:35;13.13;;;9.95;;
15536;SDS011;7870;52.448;13.270;2023-03-08T08:32:02;10.65;;;8.57;;
15536;SDS011;7870;52.448;13.270;2023-03-08T08:34:29;9.77;;;8.77;;
15536;SDS011;7870;52.448;13.270;2023-03-08T08:36:56;11.88;;;9.27;;
15536;SDS011;7870;52.448;13.270;2023-03-08T08:39:22;11.68;;;9.10;;
15536;SDS011;7870;52.448;13.270;2023-03-08T08:41:49;9.40;;;8.48;;
15536;SDS011;7870;52.448;13.270;2023-03-08T08:44:16;9.25;;;7.55;;
15536;SDS011;7870;52.448;13.270;2023-03-08T08:46:43;13.07;;;9.02;;
15536;SDS011;7870;52.448;13.270;2023-03-08T08:49:09;10.63;;;7.65;;
15536;SDS011;7870;52.448;13.270;2023-03-08T08:51:36;9.40;;;8.38;;
15536;SDS011;7870;52.448;13.270;2023-03-08T08:54:03;11.32;;;8.73;;
15536;SDS011;7870;52.448;13.270;2023-03-08T08:56:29;10.63;;;8.05;;
15536;SDS011;7870;52.448;13.270;2023-03-08T08:58:59;10.07;;;7.55;;
15536;SDS011;7870;52.448;13.270;2023-03-08T09:01:28;9.80;;;7.93;;
15536;SDS011;7870;52.448;13.270;2023-03-08T09:03:56;9.40;;;8.20;;
15536;SDS011;7870;52.448;13.270;2023-03-08T09:06:24;11.55;;;7.50;;
15536;SDS011;7870;52.448;13.270;2023-03-08T09:08:53;10.02;;;7.13;;
15536;SDS011;7870;52.448;13.270;2023-03-08T09:11:22;9.57;;;7.05;;
15536;SDS011;7870;52.448;13.270;2023-03-08T09:13:49;10.05;;;7.35;;
15536;SDS011;7870;52.448;13.270;2023-03-08T09:18:50;10.30;;;7.35;;
15536;SDS011;7870;52.448;13.270;2023-03-08T09:21:17;9.02;;;6.20;;
15536;SDS011;7870;52.448;13.270;2023-03-08T09:23:44;10.23;;;6.95;;
15536;SDS011;7870;52.448;13.270;2023-03-08T09:26:11;8.48;;;7.15;;
15536;SDS011;7870;52.448;13.270;2023-03-08T09:28:37;9.43;;;7.68;;
15536;SDS011;7870;52.448;13.270;2023-03-08T09:31:07;9.13;;;7.25;;
15536;SDS011;7870;52.448;13.270;2023-03-08T09:33:38;8.35;;;7.45;;
15536;SDS011;7870;52.448;13.270;2023-03-08T09:36:09;8.15;;;7.10;;
15536;SDS011;7870;52.448;13.270;2023-03-08T09:38:36;9.35;;;7.43;;
15536;SDS011;7870;52.448;13.270;2023-03-08T09:41:10;8.68;;;7.03;;
15536;SDS011;7870;52.448;13.270;2023-03-08T09:43:59;7.75;;;6.57;;
15536;SDS011;7870;52.448;13.270;2023-03-08T09:46:33;7.70;;;5.95;;
15536;SDS011;7870;52.448;13.270;2023-03-08T09:49:02;8.40;;;7.20;;
15536;SDS011;7870;52.448;13.270;2023-03-08T09:51:33;9.73;;;5.95;;
15536;SDS011;7870;52.448;13.270;2023-03-08T09:54:03;7.78;;;6.20;;
15536;SDS011;7870;52.448;13.270;2023-03-08T09:56:51;7.70;;;6.15;;
15536;SDS011;7870;52.448;13.270;2023-03-08T09:59:20;9.68;;;6.93;;
15536;SDS011;7870;52.448;13.270;2023-03-08T10:09:45;9.63;;;6.03;;
15536;SDS011;7870;52.448;13.270;2023-03-08T10:12:31;8.40;;;4.70;;
15536;SDS011;7870;52.448;13.270;2023-03-08T10:15:15;6.22;;;5.10;;
15536;SDS011;7870;52.448;13.270;2023-03-08T10:17:44;7.00;;;4.80;;
15536;SDS011;7870;52.448;13.270;2023-03-08T10:20:22;5.78;;;5.18;;
15536;SDS011;7870;52.448;13.270;2023-03-08T10:22:59;5.50;;;5.00;;
15536;SDS011;7870;52.448;13.270;2023-03-08T10:28:00;7.07;;;5.10;;
15536;SDS011;7870;52.448;13.270;2023-03-08T10:30:36;7.45;;;5.88;;
15536;SDS011;7870;52.448;13.270;2023-03-08T10:33:09;7.20;;;5.90;;
15536;SDS011;7870;52.448;13.270;2023-03-08T10:35:48;10.10;;;6.25;;
15536;SDS011;7870;52.448;13.270;2023-03-08T10:38:19;5.47;;;4.78;;
15536;SDS011;7870;52.448;13.270;2023-03-08T10:40:46;7.15;;;5.57;;
15536;SDS011;7870;52.448;13.270;2023-03-08T10:43:23;5.38;;;4.68;;
15536;SDS011;7870;52.448;13.270;2023-03-08T10:45:59;6.72;;;4.93;;
15536;SDS011;7870;52.448;13.270;2023-03-08T10:48:27;10.18;;;4.35;;
15536;SDS011;7870;52.448;13.270;2023-03-08T10:50:58;6.68;;;4.20;;
15536;SDS011;7870;52.448;13.270;2023-03-08T10:53:26;6.50;;;4.75;;
15536;SDS011;7870;52.448;13.270;2023-03-08T10:55:55;5.95;;;4.07;;
15536;SDS011;7870;52.448;13.270;2023-03-08T11:00:59;7.03;;;3.78;;
15536;SDS011;7870;52.448;13.270;2023-03-08T11:03:29;6.13;;;3.80;;
15536;SDS011;7870;52.448;13.270;2023-03-08T11:08:40;5.43;;;3.55;;
15536;SDS011;7870;52.448;13.270;2023-03-08T11:11:17;5.95;;;2.97;;
15536;SDS011;7870;52.448;13.270;2023-03-08T11:13:48;7.38;;;4.72;;
15536;SDS011;7870;52.448;13.270;2023-03-08T11:19:29;4.47;;;3.60;;
15536;SDS011;7870;52.448;13.270;2023-03-08T11:24:54;6.13;;;3.58;;
15536;SDS011;7870;52.448;13.270;2023-03-08T11:36:04;9.02;;;4.10;;
15536;SDS011;7870;52.448;13.270;2023-03-08T11:38:38;5.03;;;3.75;;
15536;SDS011;7870;52.448;13.270;2023-03-08T11:47:39;10.63;;;7.60;;
15536;SDS011;7870;52.448;13.270;2023-03-08T11:50:21;6.60;;;3.88;;
15536;SDS011;7870;52.448;13.270;2023-03-08T11:58:06;6.13;;;4.75;;
15536;SDS011;7870;52.448;13.270;2023-03-08T12:00:39;8.68;;;5.22;;
15536;SDS011;7870;52.448;13.270;2023-03-08T12:06:04;5.78;;;4.07;;
15536;SDS011;7870;52.448;13.270;2023-03-08T12:14:43;5.22;;;3.88;;
15536;SDS011;7870;52.448;13.270;2023-03-08T12:17:19;11.35;;;4.65;;
15536;SDS011;7870;52.448;13.270;2023-03-08T12:19:50;8.63;;;4.72;;
15536;SDS011;7870;52.448;13.270;2023-03-08T12:25:06;5.57;;;3.85;;
15536;SDS011;7870;52.448;13.270;2023-03-08T12:33:03;6.47;;;3.90;;
15536;SDS011;7870;52.448;13.270;2023-03-08T12:35:35;6.28;;;4.13;;
15536;SDS011;7870;52.448;13.270;2023-03-08T12:40:51;7.85;;;3.88;;
15536;SDS011;7870;52.448;13.270;2023-03-08T12:45:46;5.10;;;4.47;;
15536;SDS011;7870;52.448;13.270;2023-03-08T12:48:28;7.82;;;5.03;;
15536;SDS011;7870;52.448;13.270;2023-03-08T12:53:43;7.03;;;4.78;;
15536;SDS011;7870;52.448;13.270;2023-03-08T12:58:57;8.68;;;4.70;;
15536;SDS011;7870;52.448;13.270;2023-03-08T13:03:56;6.10;;;5.28;;
15536;SDS011;7870;52.448;13.270;2023-03-08T13:08:51;5.68;;;4.82;;
15536;SDS011;7870;52.448;13.270;2023-03-08T13:11:23;6.82;;;4.63;;
15536;SDS011;7870;52.448;13.270;2023-03-08T13:13:55;7.78;;;5.68;;
15536;SDS011;7870;52.448;13.270;2023-03-08T13:21:46;8.63;;;5.18;;
15536;SDS011;7870;52.448;13.270;2023-03-08T13:24:31;6.25;;;5.00;;
15536;SDS011;7870;52.448;13.270;2023-03-08T13:27:09;7.15;;;6.05;;
15536;SDS011;7870;52.448;13.270;2023-03-08T13:29:38;8.98;;;6.43;;
15536;SDS011;7870;52.448;13.270;2023-03-08T13:32:18;7.20;;;5.50;;
15536;SDS011;7870;52.448;13.270;2023-03-08T13:34:58;9.68;;;6.13;;
15536;SDS011;7870;52.448;13.270;2023-03-08T13:37:27;8.20;;;6.15;;
15536;SDS011;7870;52.448;13.270;2023-03-08T13:39:55;7.25;;;6.28;;
15536;SDS011;7870;52.448;13.270;2023-03-08T13:42:26;7.68;;;6.72;;
15536;SDS011;7870;52.448;13.270;2023-03-08T13:45:04;7.40;;;5.70;;
15536;SDS011;7870;52.448;13.270;2023-03-08T13:47:33;8.45;;;6.47;;
15536;SDS011;7870;52.448;13.270;2023-03-08T13:50:02;7.93;;;6.93;;
15536;SDS011;7870;52.448;13.270;2023-03-08T13:52:31;8.75;;;6.88;;
15536;SDS011;7870;52.448;13.270;2023-03-08T13:55:02;7.40;;;6.45;;
15536;SDS011;7870;52.448;13.270;2023-03-08T13:57:31;8.93;;;7.28;;
15536;SDS011;7870;52.448;13.270;2023-03-08T14:00:18;10.18;;;7.20;;
15536;SDS011;7870;52.448;13.270;2023-03-08T14:02:47;9.45;;;7.10;;
15536;SDS011;7870;52.448;13.270;2023-03-08T14:05:18;8.82;;;7.40;;
15536;SDS011;7870;52.448;13.270;2023-03-08T14:07:55;8.75;;;7.05;;
15536;SDS011;7870;52.448;13.270;2023-03-08T14:10:30;9.63;;;7.47;;
15536;SDS011;7870;52.448;13.270;2023-03-08T14:13:02;12.23;;;7.63;;
15536;SDS011;7870;52.448;13.270;2023-03-08T14:15:30;9.88;;;7.93;;
15536;SDS011;7870;52.448;13.270;2023-03-08T14:17:59;9.85;;;8.07;;
15536;SDS011;7870;52.448;13.270;2023-03-08T14:20:25;8.63;;;7.57;;
15536;SDS011;7870;52.448;13.270;2023-03-08T14:22:53;8.55;;;6.68;;
15536;SDS011;7870;52.448;13.270;2023-03-08T14:27:48;9.88;;;8.15;;
15536;SDS011;7870;52.448;13.270;2023-03-08T14:30:24;9.93;;;8.43;;
15536;SDS011;7870;52.448;13.270;2023-03-08T14:35:42;12.20;;;9.02;;
15536;SDS011;7870;52.448;13.270;2023-03-08T14:38:12;10.95;;;8.27;;
15536;SDS011;7870;52.448;13.270;2023-03-08T14:40:44;11.13;;;8.07;;
15536;SDS011;7870;52.448;13.270;2023-03-08T14:43:15;10.38;;;8.00;;
15536;SDS011;7870;52.448;13.270;2023-03-08T14:45:54;11.77;;;8.65;;
15536;SDS011;7870;52.448;13.270;2023-03-08T14:48:34;9.95;;;7.85;;
15536;SDS011;7870;52.448;13.270;2023-03-08T14:51:03;10.02;;;8.63;;
15536;SDS011;7870;52.448;13.270;2023-03-08T14:53:39;8.65;;;7.50;;
15536;SDS011;7870;52.448;13.270;2023-03-08T14:56:10;11.68;;;8.18;;
15536;SDS011;7870;52.448;13.270;2023-03-08T14:58:39;9.43;;;7.85;;
15536;SDS011;7870;52.448;13.270;2023-03-08T15:01:06;9.45;;;7.32;;
15536;SDS011;7870;52.448;13.270;2023-03-08T15:03:33;8.93;;;7.13;;
15536;SDS011;7870;52.448;13.270;2023-03-08T15:06:03;8.80;;;7.50;;
15536;SDS011;7870;52.448;13.270;2023-03-08T15:08:33;7.85;;;6.53;;
15536;SDS011;7870;52.448;13.270;2023-03-08T15:10:59;11.25;;;8.90;;
15536;SDS011;7870;52.448;13.270;2023-03-08T15:13:26;12.07;;;8.05;;
15536;SDS011;7870;52.448;13.270;2023-03-08T15:15:52;10.85;;;8.38;;
15536;SDS011;7870;52.448;13.270;2023-03-08T15:18:19;10.73;;;7.85;;
15536;SDS011;7870;52.448;13.270;2023-03-08T15:20:46;9.52;;;7.88;;
15536;SDS011;7870;52.448;13.270;2023-03-08T15:23:21;10.25;;;9.10;;
15536;SDS011;7870;52.448;13.270;2023-03-08T15:25:50;10.90;;;9.73;;
15536;SDS011;7870;52.448;13.270;2023-03-08T15:28:17;11.25;;;9.38;;
15536;SDS011;7870;52.448;13.270;2023-03-08T15:30:45;11.52;;;9.80;;
15536;SDS011;7870;52.448;13.270;2023-03-08T15:33:12;13.35;;;10.38;;
15536;SDS011;7870;52.448;13.270;2023-03-08T15:35:38;14.60;;;10.73;;
15536;SDS011;7870;52.448;13.270;2023-03-08T15:38:05;13.25;;;10.95;;
15536;SDS011;7870;52.448;13.270;2023-03-08T15:40:32;14.32;;;10.82;;
15536;SDS011;7870;52.448;13.270;2023-03-08T15:43:00;13.00;;;11.43;;
15536;SDS011;7870;52.448;13.270;2023-03-08T15:45:26;13.55;;;11.40;;
15536;SDS011;7870;52.448;13.270;2023-03-08T15:47:55;13.75;;;12.13;;
15536;SDS011;7870;52.448;13.270;2023-03-08T15:50:29;13.63;;;11.40;;
15536;SDS011;7870;52.448;13.270;2023-03-08T15:52:56;14.18;;;10.07;;
15536;SDS011;7870;52.448;13.270;2023-03-08T15:55:24;12.85;;;10.15;;
15536;SDS011;7870;52.448;13.270;2023-03-08T15:57:51;12.48;;;9.98;;
15536;SDS011;7870;52.448;13.270;2023-03-08T16:00:19;13.13;;;10.90;;
15536;SDS011;7870;52.448;13.270;2023-03-08T16:02:46;12.55;;;10.98;;
15536;SDS011;7870;52.448;13.270;2023-03-08T16:05:13;12.85;;;10.70;;
15536;SDS011;7870;52.448;13.270;2023-03-08T16:07:41;13.52;;;10.98;;
15536;SDS011;7870;52.448;13.270;2023-03-08T16:10:09;11.35;;;9.70;;
15536;SDS011;7870;52.448;13.270;2023-03-08T16:12:38;14.20;;;11.88;;
15536;SDS011;7870;52.448;13.270;2023-03-08T16:15:05;14.35;;;11.45;;
15536;SDS011;7870;52.448;13.270;2023-03-08T16:17:32;13.98;;;11.77;;